Barking Sands Pmrf Information

FAA: BKH - ICAO: PHBK

Barking Sands Pmrf (Airport) Location

State Hawaii
County Kauai
City Kekaha,Kauai
Barking Sands Pmrf (Airport) is 5 miles northwest of Kekaha,Kauai, HI.
Latitude 22-01-21.9730N
Longitude 159-47-06.2260W
Elevation 18ft

Barking Sands Pmrf METARs

METAR PHBK 200351Z AUTO VRB04KT 10SM CLR 27/18 A3001 RMK AO2 SLP166 T02670178
Altimeter 30.01"
Temperature 26.7°C (80.1°F)
Wind 0° at 4KT
Clouds Skies are clear.
Visibility 10.0mi
Time observed: 2021-10-20T03:51:00Z

Barking Sands Pmrf (Airport) Details

Status Operational
Activation N/A
Ownership Military - Navy
Usage Private
Chart HAWAIIAN ISLANDS
ATC on-site Yes
Beacon schedule sunset-sunrise
Beacon color split clear green

Barking Sands Pmrf (Airport) Contacts

Owner US NAVY
Owner address OCEANOGRAPHIC OFC - CODE 3142, WASHINGTON, DC 20373
Owner phone N/A
Manager ANTONIO RAMON. BORJA
Manager address PO BOX 235, TINIAN, MP 96952-1055
Manager phone (670) 433-9294

Barking Sands Pmrf Radio Frequencies

Barking Sands Pmrf (Airport) Radio Frequencies

UNICOM 122.8
Common traffic advisory frequency (CTAF) N/A